createdAt,value
2022-07-29T00:01:19.181Z,70.35
2022-07-29T00:03:48.375Z,73.63
2022-07-29T00:06:16.897Z,71.81
2022-07-29T00:08:44.918Z,73.79
2022-07-29T00:11:12.766Z,70.46
2022-07-29T00:13:40.624Z,71.85
2022-07-29T00:16:08.610Z,73.31
2022-07-29T00:18:36.448Z,72.71
2022-07-29T00:21:04.363Z,73.78
2022-07-29T00:23:36.477Z,75.30
2022-07-29T00:26:05.502Z,75.59
2022-07-29T00:28:33.291Z,76.08
2022-07-29T00:31:01.258Z,77.39
2022-07-29T00:33:30.187Z,75.34
2022-07-29T00:35:58.052Z,75.07
2022-07-29T00:38:25.889Z,73.55
2022-07-29T00:40:53.953Z,72.36
2022-07-29T00:43:21.875Z,73.34
2022-07-29T00:45:49.913Z,74.48
2022-07-29T00:48:17.736Z,74.10
2022-07-29T00:50:45.704Z,75.27
2022-07-29T00:53:13.892Z,75.48
2022-07-29T00:55:41.973Z,76.83
2022-07-29T00:58:10.038Z,78.61
2022-07-29T01:00:38.176Z,74.90
2022-07-29T01:03:06.049Z,75.74
2022-07-29T01:05:49.617Z,76.01
2022-07-29T01:08:21.287Z,76.78
2022-07-29T01:10:50.333Z,76.79
2022-07-29T01:13:19.054Z,76.05
2022-07-29T01:15:56.546Z,75.62
2022-07-29T01:18:35.361Z,75.90
2022-07-29T01:21:13.975Z,76.67
2022-07-29T01:24:01.063Z,77.43
2022-07-29T01:26:46.737Z,76.24
2022-07-29T01:29:44.973Z,76.49
2022-07-29T01:32:28.997Z,75.86
2022-07-29T01:35:06.060Z,76.70
2022-07-29T01:37:45.071Z,75.35
2022-07-29T01:40:26.331Z,77.08
2022-07-29T01:42:58.681Z,77.55
2022-07-29T01:45:49.059Z,75.50
2022-07-29T01:48:22.658Z,75.29
2022-07-29T01:50:50.475Z,76.34
2022-07-29T01:53:28.216Z,76.65
2022-07-29T01:56:08.002Z,76.61
2022-07-29T01:58:40.125Z,76.06
2022-07-29T02:01:10.691Z,75.51
2022-07-29T02:03:40.213Z,77.28
2022-07-29T02:06:11.026Z,77.09
2022-07-29T02:08:40.548Z,76.94
2022-07-29T02:11:09.884Z,75.79
2022-07-29T02:13:38.650Z,75.98
2022-07-29T02:16:09.728Z,77.34
2022-07-29T02:18:40.429Z,78.27
2022-07-29T02:21:14.823Z,78.48
2022-07-29T02:23:50.689Z,78.52
2022-07-29T02:26:21.580Z,78.17
2022-07-29T02:28:52.989Z,79.41
2022-07-29T02:31:25.515Z,78.99
2022-07-29T02:33:55.016Z,79.20
2022-07-29T02:36:24.875Z,79.37
2022-07-29T02:38:54.614Z,78.83
2022-07-29T02:41:30.678Z,78.07
2022-07-29T02:44:05.113Z,78.50
2022-07-29T02:46:36.860Z,77.16
2022-07-29T02:49:20.263Z,76.81
2022-07-29T02:51:55.324Z,76.91
2022-07-29T02:54:37.482Z,77.22
2022-07-29T02:57:20.265Z,77.18
2022-07-29T02:59:51.223Z,78.17
2022-07-29T03:02:21.375Z,79.63
2022-07-29T03:04:50.464Z,76.96
2022-07-29T03:07:20.601Z,77.73
2022-07-29T03:09:50.387Z,78.99
2022-07-29T03:12:18.672Z,78.01
2022-07-29T03:14:47.632Z,78.78
2022-07-29T03:17:16.477Z,75.67
2022-07-29T03:19:44.513Z,76.42
2022-07-29T03:22:13.068Z,78.96
2022-07-29T03:24:40.884Z,78.30
2022-07-29T03:27:08.714Z,78.39
2022-07-29T03:29:36.529Z,78.21
2022-07-29T03:32:07.977Z,77.26
2022-07-29T03:34:38.549Z,76.90
2022-07-29T03:37:07.389Z,76.94
2022-07-29T03:39:40.425Z,77.03
2022-07-29T03:42:09.844Z,77.72
2022-07-29T03:44:39.299Z,78.31
2022-07-29T03:47:10.148Z,78.91
2022-07-29T03:49:39.304Z,80.02
2022-07-29T03:52:07.556Z,81.40
2022-07-29T03:54:35.811Z,81.07
2022-07-29T03:57:06.567Z,81.10
2022-07-29T03:59:35.290Z,80.20
2022-07-29T04:02:05.445Z,81.30
2022-07-29T04:04:35.695Z,81.07
2022-07-29T04:07:04.110Z,81.43
2022-07-29T04:09:32.354Z,80.87
2022-07-29T04:12:02.665Z,81.11
2022-07-29T04:14:35.624Z,81.12
2022-07-29T04:17:04.752Z,80.86
2022-07-29T04:19:33.513Z,80.95
2022-07-29T04:22:02.553Z,80.69
2022-07-29T04:24:30.910Z,80.34
2022-07-29T04:26:58.697Z,81.42
2022-07-29T04:29:26.574Z,81.87
2022-07-29T04:31:54.483Z,79.28
2022-07-29T04:34:22.374Z,79.94
2022-07-29T04:36:50.226Z,79.15
2022-07-29T04:39:22.660Z,79.16
2022-07-29T04:41:52.603Z,78.95
2022-07-29T04:44:27.673Z,78.52
2022-07-29T04:46:58.472Z,77.33
2022-07-29T04:49:26.628Z,75.88
2022-07-29T04:51:54.929Z,74.05
2022-07-29T04:54:22.879Z,73.13
2022-07-29T04:56:50.719Z,72.60
2022-07-29T04:59:18.542Z,71.95
2022-07-29T05:01:46.447Z,71.56
2022-07-29T05:04:14.631Z,72.87
2022-07-29T05:06:42.814Z,72.50
2022-07-29T05:09:10.725Z,70.63
2022-07-29T05:11:38.566Z,68.75
2022-07-29T05:14:06.520Z,68.17
2022-07-29T05:16:34.753Z,68.59
2022-07-29T05:19:02.731Z,68.38
2022-07-29T05:21:30.555Z,67.51
2022-07-29T05:23:58.424Z,66.68
2022-07-29T05:26:26.324Z,66.52
2022-07-29T05:28:55.004Z,66.54
2022-07-29T05:31:22.884Z,67.14
2022-07-29T05:33:51.518Z,66.84
2022-07-29T05:36:19.367Z,65.39
2022-07-29T05:38:47.226Z,66.15
2022-07-29T05:41:15.083Z,64.88
2022-07-29T05:43:43.079Z,65.26
2022-07-29T05:46:11.120Z,62.64
2022-07-29T05:49:00.059Z,63.33
2022-07-29T05:51:45.634Z,61.61
2022-07-29T05:54:13.827Z,62.59
2022-07-29T05:56:41.908Z,63.48
2022-07-29T05:59:15.579Z,63.21
2022-07-29T06:01:46.332Z,61.52
2022-07-29T06:04:14.651Z,62.78
2022-07-29T06:06:42.769Z,64.06
2022-07-29T06:09:12.793Z,63.88
2022-07-29T06:11:41.905Z,64.33
2022-07-29T06:14:09.849Z,64.45
2022-07-29T06:16:37.993Z,63.54
2022-07-29T06:19:05.901Z,63.72
2022-07-29T06:21:34.677Z,64.15
2022-07-29T06:24:07.118Z,62.76
2022-07-29T06:26:39.232Z,63.66
2022-07-29T06:29:08.802Z,64.01
2022-07-29T06:31:36.570Z,64.38
2022-07-29T06:34:05.003Z,63.38
2022-07-29T06:36:36.828Z,63.04
2022-07-29T06:39:07.843Z,62.63
2022-07-29T06:41:36.605Z,63.05
2022-07-29T06:44:10.734Z,61.52
2022-07-29T06:46:38.690Z,61.43
2022-07-29T06:49:06.702Z,61.27
2022-07-29T06:51:35.157Z,60.75
2022-07-29T06:54:03.768Z,60.16
2022-07-29T06:56:39.124Z,59.85
2022-07-29T06:59:09.846Z,59.29
2022-07-29T07:01:41.432Z,58.67
2022-07-29T07:04:10.485Z,58.46
2022-07-29T07:06:38.984Z,59.43
2022-07-29T07:09:06.962Z,57.63
2022-07-29T07:11:35.098Z,57.74
2022-07-29T07:14:04.404Z,58.09
2022-07-29T07:16:33.289Z,57.87
2022-07-29T07:19:01.607Z,57.40
2022-07-29T07:21:31.087Z,58.19
2022-07-29T07:24:00.684Z,58.90
2022-07-29T07:26:28.766Z,57.95
2022-07-29T07:28:57.770Z,57.25
2022-07-29T07:31:25.630Z,56.27
2022-07-29T07:33:54.626Z,56.96
2022-07-29T07:36:23.418Z,54.31
2022-07-29T07:38:51.434Z,55.11
2022-07-29T07:41:19.342Z,53.05
2022-07-29T07:43:47.280Z,52.86
2022-07-29T07:46:15.761Z,52.81
2022-07-29T07:48:43.712Z,51.67
2022-07-29T07:51:11.677Z,51.92
2022-07-29T07:53:39.563Z,52.08
2022-07-29T07:56:10.851Z,51.27
2022-07-29T07:58:40.086Z,50.53
2022-07-29T08:01:08.878Z,49.91
2022-07-29T08:03:36.915Z,49.30
2022-07-29T08:06:05.143Z,51.14
2022-07-29T08:08:33.119Z,49.60
2022-07-29T08:11:08.295Z,49.42
2022-07-29T08:13:38.785Z,49.00
2022-07-29T08:16:14.166Z,49.62
2022-07-29T08:18:44.150Z,48.38
2022-07-29T08:21:14.900Z,48.44
2022-07-29T08:24:07.425Z,47.87
2022-07-29T08:26:35.291Z,47.20
2022-07-29T08:29:03.214Z,47.04
2022-07-29T08:31:31.197Z,47.53
2022-07-29T08:34:00.906Z,46.89
2022-07-29T08:36:28.748Z,45.96
2022-07-29T08:38:56.733Z,45.57
2022-07-29T08:41:24.930Z,45.25
2022-07-29T08:43:53.459Z,46.66
2022-07-29T08:46:22.365Z,45.77
2022-07-29T08:48:50.708Z,44.83
2022-07-29T08:51:21.354Z,45.18
2022-07-29T08:53:50.995Z,44.67
2022-07-29T08:56:21.655Z,44.33
2022-07-29T08:58:52.307Z,44.24
2022-07-29T09:01:36.580Z,44.15
2022-07-29T09:04:12.748Z,44.19
2022-07-29T09:06:45.415Z,43.95
2022-07-29T09:09:14.833Z,43.82
2022-07-29T09:11:43.812Z,44.56
2022-07-29T09:14:15.598Z,45.77
2022-07-29T09:16:54.038Z,45.66
2022-07-29T09:19:27.781Z,44.54
2022-07-29T09:22:00.139Z,44.65
2022-07-29T09:24:45.479Z,44.40
2022-07-29T09:27:23.818Z,45.08
2022-07-29T09:30:01.826Z,44.27
2022-07-29T09:32:30.668Z,44.02
2022-07-29T09:35:21.551Z,43.85
2022-07-29T09:37:49.564Z,43.36
2022-07-29T09:40:23.111Z,43.79
2022-07-29T09:42:52.438Z,42.93
2022-07-29T09:45:48.531Z,43.39
2022-07-29T09:48:18.497Z,43.48
2022-07-29T09:50:49.509Z,43.49
2022-07-29T09:53:38.502Z,43.01
2022-07-29T09:56:06.623Z,43.00
2022-07-29T09:58:35.072Z,42.63
2022-07-29T10:01:04.420Z,43.08
2022-07-29T10:03:32.475Z,42.99
2022-07-29T10:06:10.771Z,44.34
2022-07-29T10:08:39.166Z,43.77
2022-07-29T10:11:14.639Z,42.96
2022-07-29T10:13:44.527Z,42.53
2022-07-29T10:16:13.886Z,42.24
2022-07-29T10:18:43.591Z,42.07
2022-07-29T10:21:35.216Z,42.24
2022-07-29T10:24:01.440Z,41.35
2022-07-29T10:26:31.559Z,40.83
2022-07-29T10:28:59.400Z,41.25
2022-07-29T10:31:43.347Z,41.69
2022-07-29T10:34:24.396Z,40.70
2022-07-29T10:37:03.637Z,40.99
2022-07-29T10:40:37.725Z,40.54
2022-07-29T10:43:38.986Z,40.58
2022-07-29T10:46:11.842Z,40.45
2022-07-29T10:49:08.384Z,41.22
2022-07-29T10:52:20.675Z,40.47
2022-07-29T10:54:55.226Z,40.14
2022-07-29T10:57:53.611Z,40.18
2022-07-29T11:00:19.676Z,40.99
2022-07-29T11:02:52.360Z,40.35
2022-07-29T11:05:21.727Z,40.22
2022-07-29T11:08:19.970Z,39.94
2022-07-29T11:10:50.465Z,40.08
2022-07-29T11:13:51.439Z,39.48
2022-07-29T11:16:25.602Z,40.00
2022-07-29T11:19:13.220Z,38.83
2022-07-29T11:21:55.365Z,39.06
2022-07-29T11:27:22.045Z,38.07
2022-07-29T11:29:54.608Z,38.57
2022-07-29T11:32:25.132Z,39.11
2022-07-29T11:35:17.484Z,38.76
2022-07-29T11:37:52.838Z,39.02
2022-07-29T11:40:25.569Z,38.65
2022-07-29T11:42:53.669Z,38.64
2022-07-29T11:45:43.489Z,38.71
2022-07-29T11:48:28.846Z,37.97
2022-07-29T11:51:00.739Z,38.20
2022-07-29T11:53:28.922Z,38.06
2022-07-29T11:56:02.796Z,38.32
2022-07-29T11:58:32.331Z,37.24
2022-07-29T12:01:04.105Z,36.40
2022-07-29T12:03:36.422Z,36.51
2022-07-29T12:06:15.615Z,36.63
2022-07-29T12:07:01.309Z,38.55
2022-07-29T12:08:47.533Z,36.65
2022-07-29T12:11:23.383Z,36.17
2022-07-29T12:13:52.932Z,36.57
2022-07-29T12:16:25.611Z,35.40
2022-07-29T12:19:02.910Z,35.86
2022-07-29T12:21:56.301Z,36.61
2022-07-29T12:24:26.999Z,36.00
2022-07-29T12:26:59.670Z,35.55
2022-07-29T12:29:33.963Z,35.79
2022-07-29T12:32:06.309Z,35.27
2022-07-29T12:34:42.938Z,34.73
2022-07-29T12:37:11.351Z,34.60
2022-07-29T12:39:39.907Z,35.13
2022-07-29T12:42:18.778Z,36.00
2022-07-29T12:44:48.670Z,35.40
2022-07-29T12:47:17.522Z,34.61
2022-07-29T12:49:46.426Z,34.41
2022-07-29T12:52:31.009Z,34.82
2022-07-29T12:54:59.204Z,34.30
2022-07-29T12:57:27.676Z,34.27
2022-07-29T13:00:05.964Z,33.30
2022-07-29T13:02:33.890Z,33.85
2022-07-29T13:05:03.270Z,33.38
2022-07-29T13:07:54.707Z,32.65
2022-07-29T13:10:23.871Z,32.93
2022-07-29T13:13:11.480Z,32.78
2022-07-29T13:15:45.497Z,32.41
2022-07-29T13:18:34.794Z,31.55
2022-07-29T13:21:14.094Z,31.99
2022-07-29T13:23:42.462Z,31.61
2022-07-29T13:26:20.728Z,31.42
2022-07-29T13:28:48.615Z,31.56
2022-07-29T13:31:16.902Z,31.25
2022-07-29T13:33:44.819Z,30.82
2022-07-29T13:36:12.768Z,31.44
2022-07-29T13:38:40.762Z,30.39
2022-07-29T13:41:08.730Z,31.47
2022-07-29T13:43:36.571Z,31.18
2022-07-29T13:46:04.654Z,31.27
2022-07-29T13:48:32.832Z,31.09
2022-07-29T13:51:00.683Z,31.25
2022-07-29T13:53:29.793Z,31.37
2022-07-29T13:55:57.660Z,31.12
2022-07-29T13:58:25.663Z,31.39
2022-07-29T14:00:53.522Z,31.60
2022-07-29T14:03:21.510Z,31.57
2022-07-29T14:05:49.551Z,32.78
2022-07-29T14:08:24.783Z,32.84
2022-07-29T14:10:52.943Z,33.92
2022-07-29T14:13:24.326Z,34.32
2022-07-29T14:15:53.996Z,34.37
2022-07-29T14:18:22.058Z,34.17
2022-07-29T14:20:50.604Z,34.92
2022-07-29T14:23:20.182Z,34.71
2022-07-29T14:25:49.560Z,34.86
2022-07-29T14:28:17.988Z,34.30
2022-07-29T14:30:45.996Z,34.06
2022-07-29T14:33:14.286Z,34.13
2022-07-29T14:35:42.157Z,34.43
2022-07-29T14:38:10.205Z,34.79
2022-07-29T14:40:38.385Z,34.86
2022-07-29T14:43:06.881Z,35.23
2022-07-29T14:45:34.893Z,35.73
2022-07-29T14:48:02.790Z,36.13
2022-07-29T14:50:31.807Z,35.89
2022-07-29T14:53:01.129Z,36.68
2022-07-29T14:55:29.520Z,37.57
2022-07-29T14:58:07.748Z,37.79
2022-07-29T15:00:38.822Z,38.34
2022-07-29T15:03:10.976Z,38.42
2022-07-29T15:05:40.167Z,38.47
2022-07-29T15:08:09.254Z,39.25
2022-07-29T15:10:37.386Z,38.58
2022-07-29T15:13:05.278Z,38.75
2022-07-29T15:15:33.348Z,39.25
2022-07-29T15:18:01.161Z,39.11
2022-07-29T15:20:44.832Z,39.38
2022-07-29T15:23:19.880Z,39.75
2022-07-29T15:25:47.899Z,39.85
2022-07-29T15:28:16.011Z,40.04
2022-07-29T15:30:43.867Z,40.75
2022-07-29T15:33:11.848Z,40.14
2022-07-29T15:35:40.917Z,40.84
2022-07-29T15:38:09.782Z,40.59
2022-07-29T15:40:40.204Z,40.81
2022-07-29T15:43:08.683Z,41.00
2022-07-29T15:45:41.056Z,41.70
2022-07-29T15:48:14.586Z,42.05
2022-07-29T15:50:42.986Z,42.39
2022-07-29T15:53:17.787Z,41.78
2022-07-29T15:55:45.655Z,42.37
2022-07-29T15:58:13.572Z,42.72
2022-07-29T16:00:41.451Z,43.19
2022-07-29T16:03:09.371Z,43.59
2022-07-29T16:05:37.393Z,44.64
2022-07-29T16:08:05.702Z,45.09
2022-07-29T16:10:33.559Z,48.55
2022-07-29T16:13:01.512Z,50.46
2022-07-29T16:15:29.294Z,51.12
2022-07-29T16:17:57.179Z,53.81
2022-07-29T16:20:25.550Z,56.90
2022-07-29T16:22:54.237Z,56.54
2022-07-29T16:25:29.610Z,56.44
2022-07-29T16:28:06.973Z,57.77
2022-07-29T16:30:36.117Z,58.34
2022-07-29T16:33:08.204Z,59.83
2022-07-29T16:35:40.163Z,60.57
2022-07-29T16:38:08.887Z,61.68
2022-07-29T16:40:37.615Z,61.09
2022-07-29T16:43:06.558Z,61.82
2022-07-29T16:45:45.899Z,63.26
2022-07-29T16:48:15.527Z,63.36
2022-07-29T16:50:46.616Z,62.42
2022-07-29T16:53:14.789Z,62.71
2022-07-29T16:55:43.130Z,62.75
2022-07-29T16:58:12.732Z,64.37
2022-07-29T17:00:40.747Z,62.76
2022-07-29T17:03:08.735Z,62.64
2022-07-29T17:05:53.417Z,63.05
2022-07-29T17:08:22.978Z,63.18
2022-07-29T17:10:51.442Z,62.83
2022-07-29T17:13:19.639Z,63.14
2022-07-29T17:15:47.836Z,63.84
2022-07-29T17:18:15.979Z,65.81
2022-07-29T17:20:44.095Z,65.46
2022-07-29T17:23:12.097Z,65.30
2022-07-29T17:25:40.100Z,65.47
2022-07-29T17:28:07.905Z,64.28
2022-07-29T17:30:36.802Z,64.18
2022-07-29T17:33:04.914Z,63.78
2022-07-29T17:35:51.651Z,63.00
2022-07-29T17:40:53.690Z,63.29
2022-07-29T17:43:21.603Z,64.42
2022-07-29T17:45:50.904Z,64.11
2022-07-29T17:48:20.380Z,64.65
2022-07-29T17:50:49.076Z,65.15
2022-07-29T17:53:20.098Z,64.97
2022-07-29T17:55:52.012Z,65.41
2022-07-29T17:58:19.878Z,66.84
2022-07-29T18:00:48.352Z,65.40
2022-07-29T18:03:16.424Z,65.38
2022-07-29T18:05:44.576Z,65.73
2022-07-29T18:08:12.448Z,65.82
2022-07-29T18:10:41.479Z,65.97
2022-07-29T18:13:09.558Z,65.93
2022-07-29T18:15:37.398Z,66.17
2022-07-29T18:18:05.673Z,66.22
2022-07-29T18:20:33.595Z,66.54
2022-07-29T18:23:02.181Z,66.42
2022-07-29T18:25:30.092Z,65.54
2022-07-29T18:28:00.666Z,65.42
2022-07-29T18:30:30.253Z,64.28
2022-07-29T18:33:20.375Z,65.35
2022-07-29T18:35:50.322Z,65.34
2022-07-29T18:38:19.106Z,66.16
2022-07-29T18:40:47.290Z,63.86
2022-07-29T18:43:15.387Z,62.77
2022-07-29T18:45:43.309Z,62.02
2022-07-29T20:15:20.766Z,79.35
2022-07-29T20:17:49.763Z,77.79
2022-07-29T20:20:20.124Z,78.74
2022-07-29T20:22:47.909Z,81.56
2022-07-29T20:25:15.776Z,82.96
2022-07-29T20:27:43.573Z,83.43
2022-07-29T20:30:14.637Z,86.17
2022-07-29T20:32:42.578Z,87.10
2022-07-29T20:35:12.160Z,85.40
2022-07-29T20:37:56.033Z,84.89
2022-07-29T20:40:27.908Z,84.10
2022-07-29T20:42:56.210Z,86.56
2022-07-29T20:45:24.532Z,84.84
2022-07-29T20:47:52.946Z,82.95
2022-07-29T20:50:24.616Z,87.43
2022-07-29T20:52:52.958Z,88.29
2022-07-29T20:55:23.504Z,93.27
2022-07-29T20:57:51.235Z,91.25
2022-07-29T21:00:19.135Z,91.82
2022-07-29T21:02:47.494Z,94.02
2022-07-29T21:05:15.708Z,95.98
2022-07-29T21:07:43.609Z,95.24
2022-07-29T21:10:11.444Z,95.73
2022-07-29T21:12:39.276Z,96.51
2022-07-29T21:15:07.608Z,96.54
2022-07-29T21:17:40.857Z,98.80
2022-07-29T21:20:09.194Z,97.44
2022-07-29T21:22:36.977Z,98.99
2022-07-29T21:25:05.333Z,98.16
2022-07-29T21:27:51.824Z,94.98
2022-07-29T21:30:19.966Z,95.37
2022-07-29T21:32:47.813Z,97.43
2022-07-29T21:35:35.671Z,99.77
2022-07-29T21:38:03.506Z,100.00
2022-07-29T21:40:31.232Z,97.05
2022-07-29T21:42:59.011Z,95.34
2022-07-29T21:45:27.376Z,97.78
2022-07-29T21:47:55.303Z,97.91
2022-07-29T21:50:23.133Z,100.00
2022-07-29T21:52:50.896Z,99.79
2022-07-29T21:55:21.386Z,98.26
2022-07-29T21:57:52.903Z,98.99
2022-07-29T22:00:22.727Z,98.79
2022-07-29T22:02:50.591Z,100.00
2022-07-29T22:05:19.054Z,100.00
2022-07-29T22:07:54.688Z,98.89
2022-07-29T22:10:26.128Z,97.40
2022-07-29T22:12:55.332Z,98.48
2022-07-29T22:15:23.497Z,96.79
2022-07-29T22:17:51.538Z,96.55
2022-07-29T22:20:19.947Z,100.00
2022-07-29T22:22:48.461Z,98.48
2022-07-29T22:25:16.662Z,100.00
2022-07-29T22:27:44.788Z,100.00
2022-07-29T22:30:13.045Z,99.46
2022-07-29T22:32:43.726Z,98.29
2022-07-29T22:35:11.703Z,98.50
2022-07-29T22:37:39.615Z,100.00
2022-07-29T22:40:07.844Z,100.00
2022-07-29T22:42:36.289Z,100.00
2022-07-29T22:45:10.605Z,98.41
2022-07-29T22:47:48.101Z,98.57
2022-07-29T22:50:17.973Z,100.00
2022-07-29T22:52:48.594Z,100.00
2022-07-29T22:55:16.414Z,100.00
2022-07-29T22:57:44.193Z,100.00
2022-07-29T23:00:13.084Z,100.00
2022-07-29T23:02:43.867Z,100.00
2022-07-29T23:05:16.035Z,99.75
2022-07-29T23:07:43.918Z,100.00
2022-07-29T23:10:12.091Z,100.00
2022-07-29T23:12:39.879Z,100.00
2022-07-29T23:15:08.051Z,100.00
2022-07-29T23:17:36.897Z,100.00
2022-07-29T23:20:09.963Z,100.00
2022-07-29T23:22:40.512Z,100.00
2022-07-29T23:25:08.748Z,100.00
2022-07-29T23:27:36.853Z,100.00
2022-07-29T23:30:05.418Z,100.00
2022-07-29T23:32:33.380Z,100.00
2022-07-29T23:35:01.230Z,100.00
2022-07-29T23:37:29.045Z,99.79
2022-07-29T23:39:57.070Z,99.59
2022-07-29T23:42:24.966Z,99.14
2022-07-29T23:44:52.977Z,98.28
2022-07-29T23:47:20.803Z,98.12
2022-07-29T23:49:50.204Z,99.08
2022-07-29T23:52:18.218Z,100.00
2022-07-29T23:54:46.052Z,99.31
2022-07-29T23:57:14.109Z,99.31
2022-07-29T23:59:41.900Z,99.94
